createdAt,value
2018-07-23T00:01:21.551Z,100.00
2018-07-23T00:03:50.918Z,100.00
2018-07-23T00:06:19.684Z,100.00
2018-07-23T00:08:49.160Z,100.00
2018-07-23T00:11:17.836Z,100.00
2018-07-23T00:13:46.657Z,100.00
2018-07-23T00:16:22.683Z,100.00
2018-07-23T00:18:51.474Z,100.00
2018-07-23T00:21:20.256Z,100.00
2018-07-23T00:23:54.210Z,100.00
2018-07-23T00:26:22.959Z,100.00
2018-07-23T00:28:51.748Z,100.00
2018-07-23T00:31:20.641Z,100.00
2018-07-23T00:33:49.381Z,100.00
2018-07-23T00:36:18.394Z,100.00
2018-07-23T00:44:49.528Z,100.00
2018-07-23T00:47:18.235Z,100.00
2018-07-23T00:49:46.965Z,100.00
2018-07-23T00:52:15.745Z,100.00
2018-07-23T00:54:44.448Z,100.00
2018-07-23T00:57:13.565Z,100.00
2018-07-23T00:59:42.910Z,100.00
2018-07-23T01:02:11.843Z,100.00
2018-07-23T01:04:40.384Z,100.00
2018-07-23T01:07:09.614Z,100.00
2018-07-23T01:09:38.458Z,100.00
2018-07-23T01:12:07.419Z,100.00
2018-07-23T01:14:36.181Z,100.00
2018-07-23T01:17:05.463Z,100.00
2018-07-23T01:19:34.685Z,100.00
2018-07-23T01:22:03.334Z,100.00
2018-07-23T01:24:32.183Z,100.00
2018-07-23T01:27:01.078Z,100.00
2018-07-23T01:29:29.813Z,100.00
2018-07-23T01:31:58.550Z,100.00
2018-07-23T01:34:27.929Z,100.00
2018-07-23T01:36:56.944Z,100.00
2018-07-23T01:39:25.565Z,100.00
2018-07-23T01:41:54.690Z,100.00
2018-07-23T01:44:23.908Z,100.00
2018-07-23T01:46:52.870Z,100.00
2018-07-23T01:49:21.492Z,100.00
2018-07-23T01:51:50.239Z,100.00
2018-07-23T01:54:18.899Z,100.00
2018-07-23T01:56:47.560Z,100.00
2018-07-23T01:59:16.414Z,100.00
2018-07-23T02:01:45.565Z,100.00
2018-07-23T02:04:14.440Z,100.00
2018-07-23T02:06:43.100Z,100.00
2018-07-23T02:09:13.353Z,100.00
2018-07-23T02:11:42.500Z,100.00
2018-07-23T02:14:11.884Z,100.00
2018-07-23T02:16:41.895Z,100.00
2018-07-23T02:19:11.142Z,100.00
2018-07-23T02:21:40.040Z,100.00
2018-07-23T02:24:10.189Z,100.00
2018-07-23T02:26:39.744Z,100.00
2018-07-23T02:29:09.116Z,100.00
2018-07-23T02:31:38.209Z,100.00
2018-07-23T02:34:07.632Z,100.00
2018-07-23T02:36:36.379Z,100.00
2018-07-23T02:39:08.399Z,100.00
2018-07-23T02:41:37.161Z,100.00
2018-07-23T02:44:06.221Z,100.00
2018-07-23T02:46:35.463Z,100.00
2018-07-23T02:49:04.226Z,100.00
2018-07-23T02:51:33.007Z,100.00
2018-07-23T02:54:02.171Z,100.00
2018-07-23T02:56:30.844Z,100.00
2018-07-23T02:58:59.884Z,100.00
2018-07-23T03:01:28.829Z,100.00
2018-07-23T03:03:58.032Z,100.00
2018-07-23T03:06:28.645Z,100.00
2018-07-23T03:08:57.630Z,100.00
2018-07-23T03:11:26.816Z,100.00
2018-07-23T03:13:55.944Z,100.00
2018-07-23T03:16:24.860Z,100.00
2018-07-23T03:18:54.374Z,100.00
2018-07-23T03:21:23.274Z,100.00
2018-07-23T03:23:52.826Z,100.00
2018-07-23T03:26:21.569Z,100.00
2018-07-23T03:28:50.326Z,100.00
2018-07-23T03:31:19.820Z,100.00
2018-07-23T03:33:48.826Z,100.00
2018-07-23T03:36:17.592Z,100.00
2018-07-23T03:38:46.322Z,100.00
2018-07-23T03:41:15.125Z,100.00
2018-07-23T03:43:44.675Z,100.00
2018-07-23T03:46:13.667Z,100.00
2018-07-23T03:48:42.451Z,100.00
2018-07-23T03:51:11.319Z,100.00
2018-07-23T03:53:39.904Z,100.00
2018-07-23T03:56:08.747Z,100.00
2018-07-23T03:58:39.131Z,100.00
2018-07-23T04:01:07.886Z,100.00
2018-07-23T04:03:36.638Z,100.00
2018-07-23T04:06:05.371Z,100.00
2018-07-23T04:08:34.085Z,100.00
2018-07-23T04:11:02.776Z,100.00
2018-07-23T04:13:31.417Z,100.00
2018-07-23T04:16:00.276Z,100.00
2018-07-23T04:18:29.907Z,100.00
2018-07-23T04:20:58.754Z,100.00
2018-07-23T04:23:27.433Z,100.00
2018-07-23T04:25:56.380Z,100.00
2018-07-23T04:28:25.202Z,100.00
2018-07-23T04:30:54.056Z,100.00
2018-07-23T04:33:23.020Z,100.00
2018-07-23T04:35:51.685Z,100.00
2018-07-23T04:38:20.626Z,100.00
2018-07-23T04:40:49.681Z,100.00
2018-07-23T04:43:18.383Z,100.00
2018-07-23T04:45:47.140Z,100.00
2018-07-23T04:48:15.855Z,100.00
2018-07-23T04:50:44.974Z,100.00
2018-07-23T04:53:14.100Z,100.00
2018-07-23T04:55:42.885Z,100.00
2018-07-23T04:58:11.772Z,100.00
2018-07-23T05:00:41.401Z,100.00
2018-07-23T05:03:09.973Z,100.00
2018-07-23T05:05:39.314Z,100.00
2018-07-23T05:08:08.490Z,100.00
2018-07-23T05:10:37.434Z,100.00
2018-07-23T05:13:06.846Z,100.00
2018-07-23T05:15:35.639Z,100.00
2018-07-23T05:18:04.310Z,100.00
2018-07-23T05:20:33.130Z,100.00
2018-07-23T05:23:01.895Z,100.00
2018-07-23T05:25:30.710Z,100.00
2018-07-23T05:28:00.030Z,100.00
2018-07-23T05:30:28.811Z,100.00
2018-07-23T05:32:57.487Z,100.00
2018-07-23T05:35:26.275Z,100.00
2018-07-23T05:37:55.189Z,100.00
2018-07-23T05:40:23.996Z,100.00
2018-07-23T05:42:52.942Z,100.00
2018-07-23T05:45:21.607Z,99.71
2018-07-23T05:47:50.351Z,100.00
2018-07-23T05:50:19.069Z,99.96
2018-07-23T05:52:47.655Z,99.99
2018-07-23T05:55:16.414Z,99.63
2018-07-23T05:57:45.096Z,99.75
2018-07-23T06:00:14.565Z,99.51
2018-07-23T06:02:43.561Z,99.54
2018-07-23T06:05:12.592Z,99.51
2018-07-23T06:07:41.200Z,99.72
2018-07-23T06:10:09.935Z,99.33
2018-07-23T06:12:39.027Z,98.82
2018-07-23T06:15:08.921Z,98.75
2018-07-23T06:17:37.987Z,98.48
2018-07-23T06:20:08.030Z,98.30
2018-07-23T06:22:37.001Z,98.17
2018-07-23T06:25:06.925Z,98.63
2018-07-23T06:27:35.680Z,98.56
2018-07-23T06:30:05.419Z,98.41
2018-07-23T06:32:34.853Z,97.85
2018-07-23T06:35:03.522Z,97.52
2018-07-23T06:37:32.335Z,97.12
2018-07-23T06:40:01.015Z,96.00
2018-07-23T06:42:30.376Z,96.29
2018-07-23T06:44:59.625Z,95.67
2018-07-23T06:47:28.591Z,95.48
2018-07-23T06:49:58.092Z,94.91
2018-07-23T06:52:27.027Z,94.58
2018-07-23T06:54:55.802Z,95.05
2018-07-23T06:57:24.483Z,93.86
2018-07-23T06:59:53.352Z,94.09
2018-07-23T07:02:21.999Z,94.40
2018-07-23T07:04:50.976Z,94.08
2018-07-23T07:07:19.626Z,93.90
2018-07-23T07:09:48.497Z,91.40
2018-07-23T07:12:17.531Z,90.83
2018-07-23T07:14:46.407Z,90.30
2018-07-23T07:17:15.251Z,89.99
2018-07-23T07:19:44.085Z,89.66
2018-07-23T07:22:12.902Z,89.99
2018-07-23T07:24:42.534Z,89.25
2018-07-23T07:27:11.290Z,89.06
2018-07-23T07:29:40.179Z,88.83
2018-07-23T07:32:08.872Z,89.13
2018-07-23T07:34:37.533Z,88.88
2018-07-23T07:37:06.317Z,86.68
2018-07-23T07:39:35.342Z,86.92
2018-07-23T07:42:04.510Z,87.21
2018-07-23T07:44:33.777Z,86.34
2018-07-23T07:47:03.370Z,85.43
2018-07-23T07:49:33.214Z,85.25
2018-07-23T07:52:01.830Z,85.91
2018-07-23T07:54:30.797Z,84.25
2018-07-23T07:57:00.478Z,83.83
2018-07-23T07:59:29.152Z,83.75
2018-07-23T08:01:58.281Z,83.52
2018-07-23T08:04:27.118Z,82.33
2018-07-23T08:06:55.863Z,82.70
2018-07-23T08:09:25.468Z,81.42
2018-07-23T08:11:54.381Z,80.34
2018-07-23T08:14:23.584Z,78.44
2018-07-23T08:16:53.266Z,76.98
2018-07-23T08:19:22.008Z,75.22
2018-07-23T08:21:51.138Z,72.47
2018-07-23T08:24:20.032Z,70.21
2018-07-23T08:26:48.764Z,67.76
2018-07-23T08:29:17.593Z,65.96
2018-07-23T08:31:47.393Z,64.79
2018-07-23T08:34:16.011Z,61.99
2018-07-23T08:36:44.851Z,58.33
2018-07-23T08:39:13.474Z,52.91
2018-07-23T08:41:42.123Z,50.04
2018-07-23T08:44:11.244Z,49.51
2018-07-23T08:46:40.117Z,50.34
2018-07-23T08:49:08.932Z,51.24
2018-07-23T08:51:37.843Z,51.45
2018-07-23T08:54:06.601Z,51.62
2018-07-23T08:56:35.442Z,54.62
2018-07-23T08:59:04.287Z,55.75
2018-07-23T09:01:33.843Z,57.23
2018-07-23T09:04:02.656Z,57.17
2018-07-23T09:06:31.480Z,56.17
2018-07-23T09:09:00.571Z,56.58
2018-07-23T09:11:30.713Z,56.25
2018-07-23T09:13:59.757Z,54.92
2018-07-23T09:16:28.376Z,53.76
2018-07-23T09:18:57.358Z,51.20
2018-07-23T09:21:26.292Z,48.39
2018-07-23T09:23:55.942Z,44.74
2018-07-23T09:26:24.691Z,42.74
2018-07-23T09:28:53.332Z,40.27
2018-07-23T09:31:22.256Z,39.61
2018-07-23T09:33:51.811Z,38.93
2018-07-23T09:36:21.071Z,36.82
2018-07-23T09:38:50.837Z,37.85
2018-07-23T09:41:20.407Z,36.86
2018-07-23T09:43:49.281Z,37.21
2018-07-23T09:46:18.108Z,37.04
2018-07-23T09:48:47.012Z,35.95
2018-07-23T09:51:15.882Z,35.49
2018-07-23T09:53:44.587Z,34.93
2018-07-23T09:56:13.463Z,31.77
2018-07-23T09:58:42.266Z,31.91
2018-07-23T10:01:12.365Z,30.63
2018-07-23T10:03:42.062Z,29.73
2018-07-23T10:06:10.972Z,29.39
2018-07-23T10:08:39.930Z,28.51
2018-07-23T10:11:09.167Z,28.66
2018-07-23T10:13:38.616Z,29.57
2018-07-23T10:16:07.387Z,28.07
2018-07-23T10:18:36.077Z,30.42
2018-07-23T10:21:04.927Z,34.18
2018-07-23T10:23:34.351Z,33.71
2018-07-23T10:26:03.123Z,33.96
2018-07-23T10:28:31.968Z,29.74
2018-07-23T10:31:00.906Z,29.02
2018-07-23T10:33:30.059Z,28.37
2018-07-23T10:35:58.677Z,27.53
2018-07-23T10:38:27.615Z,27.09
2018-07-23T10:40:57.038Z,28.60
2018-07-23T10:43:25.770Z,29.14
2018-07-23T10:45:55.593Z,28.69
2018-07-23T10:48:24.553Z,30.93
2018-07-23T10:50:53.514Z,32.40
2018-07-23T10:53:22.196Z,30.46
2018-07-23T10:55:50.877Z,30.16
2018-07-23T10:58:19.757Z,30.32
2018-07-23T11:00:48.736Z,31.99
2018-07-23T11:03:18.185Z,33.68
2018-07-23T11:05:47.061Z,36.55
2018-07-23T11:08:15.711Z,35.72
2018-07-23T11:10:44.726Z,35.12
2018-07-23T11:13:13.931Z,38.12
2018-07-23T11:15:42.732Z,38.81
2018-07-23T11:18:11.539Z,36.11
2018-07-23T11:20:40.516Z,35.41
2018-07-23T11:23:09.464Z,35.95
2018-07-23T11:25:39.408Z,38.16
2018-07-23T11:28:07.299Z,37.68
2018-07-23T11:30:36.393Z,37.27
2018-07-23T11:33:05.579Z,36.46
2018-07-23T11:35:34.312Z,36.67
2018-07-23T11:38:03.093Z,36.03
2018-07-23T11:40:32.267Z,36.12
2018-07-23T11:43:01.923Z,37.40
2018-07-23T11:45:31.103Z,37.63
2018-07-23T11:48:00.142Z,38.05
2018-07-23T11:50:28.949Z,38.82
2018-07-23T11:52:57.699Z,36.52
2018-07-23T11:55:26.739Z,36.78
2018-07-23T11:57:55.459Z,36.69
2018-07-23T12:00:24.279Z,34.00
2018-07-23T12:02:54.438Z,35.91
2018-07-23T12:05:23.282Z,36.28
2018-07-23T12:07:52.223Z,36.06
2018-07-23T12:10:21.037Z,35.74
2018-07-23T12:12:50.554Z,36.25
2018-07-23T12:15:19.548Z,36.21
2018-07-23T12:17:48.527Z,37.10
2018-07-23T12:20:17.997Z,37.36
2018-07-23T12:22:48.192Z,37.09
2018-07-23T12:25:17.123Z,37.71
2018-07-23T12:27:45.891Z,37.86
2018-07-23T12:30:14.515Z,37.49
2018-07-23T12:32:44.022Z,38.30
2018-07-23T12:35:12.678Z,38.83
2018-07-23T12:37:41.618Z,38.69
2018-07-23T12:40:10.732Z,38.58
2018-07-23T12:42:39.555Z,37.83
2018-07-23T12:45:08.287Z,39.28
2018-07-23T12:47:37.564Z,39.23
2018-07-23T12:50:06.238Z,38.42
2018-07-23T12:52:34.936Z,39.86
2018-07-23T12:55:04.148Z,39.16
2018-07-23T12:57:32.784Z,38.04
2018-07-23T13:00:01.626Z,37.38
2018-07-23T13:02:30.279Z,37.77
2018-07-23T13:04:59.037Z,37.53
2018-07-23T13:07:28.690Z,38.53
2018-07-23T13:09:57.492Z,40.29
2018-07-23T13:12:26.140Z,41.31
2018-07-23T13:14:54.968Z,41.15
2018-07-23T13:17:24.298Z,39.60
2018-07-23T13:19:53.128Z,37.57
2018-07-23T13:22:21.766Z,37.92
2018-07-23T13:24:50.533Z,37.35
2018-07-23T13:27:19.143Z,37.78
2018-07-23T13:29:47.951Z,37.29
2018-07-23T13:32:16.548Z,37.52
2018-07-23T13:34:45.368Z,39.52
2018-07-23T13:37:14.074Z,40.91
2018-07-23T13:39:42.687Z,40.49
2018-07-23T13:42:11.493Z,39.19
2018-07-23T13:44:41.115Z,39.60
2018-07-23T13:47:09.959Z,39.18
2018-07-23T13:49:39.294Z,38.51
2018-07-23T13:52:08.475Z,38.78
2018-07-23T13:54:37.240Z,38.22
2018-07-23T13:57:05.982Z,36.95
2018-07-23T13:59:35.077Z,38.91
2018-07-23T14:02:04.430Z,37.48
2018-07-23T14:04:33.813Z,39.42
2018-07-23T14:07:02.794Z,38.83
2018-07-23T14:09:31.508Z,38.56
2018-07-23T14:12:00.195Z,38.98
2018-07-23T14:14:28.916Z,38.45
2018-07-23T14:16:57.722Z,38.54
2018-07-23T14:19:26.492Z,38.49
2018-07-23T14:21:55.620Z,37.61
2018-07-23T14:24:24.405Z,37.82
2018-07-23T14:26:53.038Z,38.79
2018-07-23T14:29:21.930Z,37.78
2018-07-23T14:31:50.545Z,39.21
2018-07-23T14:34:19.773Z,39.60
2018-07-23T14:36:48.569Z,38.11
2018-07-23T14:39:17.368Z,38.22
2018-07-23T14:41:46.019Z,37.41
2018-07-23T14:44:14.772Z,36.58
2018-07-23T14:46:43.484Z,37.74
2018-07-23T14:49:12.763Z,38.56
2018-07-23T14:51:41.514Z,38.48
2018-07-23T14:54:10.209Z,38.02
2018-07-23T14:56:38.853Z,38.40
2018-07-23T14:59:07.544Z,38.21
2018-07-23T15:01:36.303Z,39.57
2018-07-23T15:04:05.089Z,42.16
2018-07-23T15:06:33.813Z,41.09
2018-07-23T15:09:02.437Z,39.88
2018-07-23T15:11:31.024Z,40.71
2018-07-23T15:13:59.959Z,39.85
2018-07-23T15:16:29.305Z,39.59
2018-07-23T15:18:57.989Z,40.07
2018-07-23T15:21:26.689Z,42.82
2018-07-23T15:23:55.327Z,44.42
2018-07-23T15:26:24.145Z,42.67
2018-07-23T15:28:53.049Z,42.50
2018-07-23T15:31:21.919Z,43.50
2018-07-23T15:33:50.964Z,41.81
2018-07-23T15:36:19.766Z,41.08
2018-07-23T15:38:49.138Z,40.78
2018-07-23T15:41:17.811Z,42.44
2018-07-23T15:43:46.674Z,40.73
2018-07-23T15:46:15.761Z,42.40
2018-07-23T15:48:45.026Z,44.16
2018-07-23T15:51:13.651Z,42.91
2018-07-23T15:53:42.953Z,40.85
2018-07-23T15:56:11.679Z,40.74
2018-07-23T15:58:40.448Z,42.12
2018-07-23T16:01:09.453Z,42.26
2018-07-23T16:03:38.109Z,41.36
2018-07-23T16:06:06.890Z,41.92
2018-07-23T16:08:35.545Z,40.04
2018-07-23T16:11:04.344Z,40.41
2018-07-23T16:13:33.235Z,41.24
2018-07-23T16:16:02.960Z,44.68
2018-07-23T16:18:31.746Z,47.50
2018-07-23T16:21:01.511Z,48.19
2018-07-23T16:23:30.447Z,46.55
2018-07-23T16:25:59.890Z,46.11
2018-07-23T16:28:28.652Z,43.57
2018-07-23T16:30:57.303Z,43.22
2018-07-23T16:33:26.075Z,42.31
2018-07-23T16:35:54.853Z,41.27
2018-07-23T16:38:23.855Z,41.65
2018-07-23T16:40:53.361Z,42.15
2018-07-23T16:43:22.393Z,42.84
2018-07-23T16:45:57.697Z,43.23
2018-07-23T16:48:26.624Z,42.95
2018-07-23T16:50:55.977Z,42.34
2018-07-23T16:53:25.293Z,43.69
2018-07-23T16:55:53.919Z,43.95
2018-07-23T16:58:22.534Z,44.33
2018-07-23T17:00:51.322Z,45.63
2018-07-23T17:03:20.326Z,45.63
2018-07-23T17:05:49.478Z,45.31
2018-07-23T17:08:18.500Z,45.85
2018-07-23T17:10:47.405Z,44.16
2018-07-23T17:13:16.235Z,45.73
2018-07-23T17:15:45.204Z,47.41
2018-07-23T17:18:13.998Z,49.01
2018-07-23T17:20:42.635Z,52.05
2018-07-23T17:23:11.230Z,51.95
2018-07-23T17:25:40.035Z,55.03
2018-07-23T17:28:09.498Z,54.09
2018-07-23T17:30:39.551Z,55.19
2018-07-23T17:33:08.994Z,59.45
2018-07-23T17:35:37.700Z,60.05
2018-07-23T17:38:06.331Z,60.42
2018-07-23T17:40:34.934Z,60.18
2018-07-23T17:43:03.633Z,60.85
2018-07-23T17:45:32.480Z,61.72
2018-07-23T17:48:01.973Z,62.02
2018-07-23T17:50:31.385Z,62.91
2018-07-23T17:53:00.979Z,63.59
2018-07-23T17:55:29.735Z,63.68
2018-07-23T17:57:58.805Z,63.48
2018-07-23T18:00:27.750Z,64.24
2018-07-23T18:02:56.420Z,65.45
2018-07-23T18:05:26.021Z,63.92
2018-07-23T18:07:54.833Z,64.84
2018-07-23T18:10:23.445Z,64.17
2018-07-23T18:12:52.335Z,63.93
2018-07-23T18:15:21.240Z,63.64
2018-07-23T18:17:49.931Z,63.03
2018-07-23T18:20:18.904Z,63.83
2018-07-23T18:22:47.660Z,65.63
2018-07-23T18:25:16.456Z,65.81
2018-07-23T18:27:45.931Z,65.72
2018-07-23T18:30:14.978Z,65.34
2018-07-23T18:32:43.833Z,68.20
2018-07-23T18:35:12.656Z,68.61
2018-07-23T18:37:41.782Z,69.37
2018-07-23T18:40:10.831Z,69.32
2018-07-23T18:42:40.417Z,69.72
2018-07-23T18:45:09.456Z,71.10
2018-07-23T18:47:38.539Z,71.08
2018-07-23T18:50:07.810Z,71.08
2018-07-23T18:52:36.925Z,72.01
2018-07-23T18:55:06.165Z,72.93
2018-07-23T18:57:35.346Z,72.79
2018-07-23T19:00:04.403Z,73.03
2018-07-23T19:02:33.106Z,73.84
2018-07-23T19:05:02.660Z,73.88
2018-07-23T19:07:32.379Z,74.01
2018-07-23T19:10:01.778Z,75.64
2018-07-23T19:12:30.571Z,75.88
2018-07-23T19:15:00.129Z,75.74
2018-07-23T19:17:29.494Z,75.93
2018-07-23T19:19:58.265Z,75.67
2018-07-23T19:22:26.979Z,77.59
2018-07-23T19:24:55.666Z,78.26
2018-07-23T19:27:24.340Z,78.34
2018-07-23T19:29:53.315Z,78.45
2018-07-23T19:32:22.922Z,78.06
2018-07-23T19:34:51.474Z,78.79
2018-07-23T19:37:20.127Z,78.53
2018-07-23T19:39:48.787Z,78.17
2018-07-23T19:42:17.532Z,78.23
2018-07-23T19:44:46.114Z,78.97
2018-07-23T19:47:14.736Z,78.36
2018-07-23T19:49:43.375Z,78.80
2018-07-23T19:52:12.119Z,78.81
2018-07-23T19:54:40.915Z,80.74
2018-07-23T19:57:09.870Z,80.86
2018-07-23T19:59:38.474Z,80.33
2018-07-23T20:02:07.384Z,81.00
2018-07-23T20:04:36.027Z,80.65
2018-07-23T20:07:05.380Z,80.86
2018-07-23T20:09:34.129Z,81.80
2018-07-23T20:12:03.335Z,82.01
2018-07-23T20:14:32.411Z,82.00
2018-07-23T20:17:01.517Z,81.73
2018-07-23T20:19:30.170Z,82.31
2018-07-23T20:21:58.930Z,82.80
2018-07-23T20:24:27.607Z,83.12
2018-07-23T20:26:56.368Z,83.57
2018-07-23T20:29:25.021Z,84.38
2018-07-23T20:31:54.656Z,84.16
2018-07-23T20:34:23.432Z,84.40
2018-07-23T20:36:52.665Z,84.38
2018-07-23T20:39:21.489Z,85.03
2018-07-23T20:41:50.264Z,86.43
2018-07-23T20:44:19.181Z,87.14
2018-07-23T20:46:47.781Z,86.75
2018-07-23T20:49:16.410Z,86.23
2018-07-23T20:51:45.696Z,86.20
2018-07-23T20:54:14.616Z,86.83
2018-07-23T20:56:43.451Z,87.00
2018-07-23T20:59:12.047Z,86.77
2018-07-23T21:01:40.802Z,86.66
2018-07-23T21:04:09.598Z,87.19
2018-07-23T21:06:38.371Z,87.35
2018-07-23T21:09:08.370Z,87.86
2018-07-23T21:11:37.301Z,87.99
2018-07-23T21:14:06.245Z,88.38
2018-07-23T21:16:35.334Z,88.22
2018-07-23T21:19:04.956Z,88.32
2018-07-23T21:21:33.901Z,88.49
2018-07-23T21:24:02.997Z,88.33
2018-07-23T21:26:31.750Z,88.46
2018-07-23T21:29:00.451Z,88.25
2018-07-23T21:31:29.300Z,88.93
2018-07-23T21:33:57.961Z,89.10
2018-07-23T21:36:26.954Z,88.97
2018-07-23T21:38:55.617Z,89.60
2018-07-23T21:41:24.513Z,89.80
2018-07-23T21:43:53.160Z,89.89
2018-07-23T21:46:22.185Z,89.74
2018-07-23T21:48:50.784Z,89.52
2018-07-23T21:51:19.456Z,89.76
2018-07-23T21:53:48.041Z,89.77
2018-07-23T21:56:16.756Z,90.21
2018-07-23T21:58:45.321Z,90.14
2018-07-23T22:01:14.093Z,90.18
2018-07-23T22:03:43.651Z,89.99
2018-07-23T22:06:13.028Z,90.76
2018-07-23T22:08:41.733Z,90.54
2018-07-23T22:11:10.420Z,90.74
2018-07-23T22:13:39.034Z,90.24
2018-07-23T22:16:07.927Z,90.59
2018-07-23T22:18:36.695Z,91.05
2018-07-23T22:21:06.592Z,91.23
2018-07-23T22:23:35.331Z,91.51
2018-07-23T22:26:04.635Z,91.99
2018-07-23T22:28:37.859Z,92.62
2018-07-23T22:31:07.057Z,92.08
2018-07-23T22:33:35.960Z,92.40
2018-07-23T22:36:04.782Z,92.77
2018-07-23T22:38:33.657Z,92.87
2018-07-23T22:41:03.396Z,92.49
2018-07-23T22:43:32.248Z,92.67
2018-07-23T22:46:01.500Z,92.76
2018-07-23T22:48:30.180Z,92.53
2018-07-23T22:50:58.876Z,92.75
2018-07-23T22:53:27.776Z,92.59
2018-07-23T22:55:56.535Z,92.48
2018-07-23T22:58:25.384Z,91.96
2018-07-23T23:00:54.156Z,92.11
2018-07-23T23:03:23.159Z,92.28
2018-07-23T23:05:51.856Z,92.57
2018-07-23T23:08:21.501Z,92.96
2018-07-23T23:10:50.499Z,92.93
2018-07-23T23:13:19.320Z,93.09
2018-07-23T23:15:48.172Z,93.23
2018-07-23T23:18:17.045Z,92.87
2018-07-23T23:20:45.703Z,93.28
2018-07-23T23:23:14.783Z,93.49
2018-07-23T23:25:43.597Z,93.55
2018-07-23T23:28:12.486Z,92.87
2018-07-23T23:30:41.464Z,93.83
2018-07-23T23:33:10.184Z,93.65
2018-07-23T23:35:39.006Z,93.57
2018-07-23T23:38:08.190Z,93.97
2018-07-23T23:40:37.670Z,94.29
2018-07-23T23:43:06.737Z,94.32
2018-07-23T23:45:35.526Z,94.33
2018-07-23T23:48:04.179Z,94.13
2018-07-23T23:50:32.744Z,94.17
2018-07-23T23:53:01.299Z,94.30
2018-07-23T23:55:29.872Z,94.70
2018-07-23T23:57:58.422Z,94.35
